Ferndale, Michigan
Current Conditions -  °F | °C
As of 12:53 AM on Monday 22 Dec 2014 (Local Time) from KDET Reporting Station
Haze Haze  
Wind Chill: 29°   Ceiling: Unl
Heat Index: 29°   Visibility: 6mi
Dew Point: 22°   Wind: 3mph
Humidity: 75%   Direction: 140°SE
Pressure: 30.19"   Gusts: NA
Location:  42.46°N, 83.13°W
Report Text: KDET 220553Z 14003KT 6SM HZ CLR M02/M06 A3019 RMK AO2 SLP228 T10171056 11006 21022 58014 $
Loading
Personal Weather Stations






























Interactive Weather Map New forecast layout! Learn more

10-Day Weather Forecast

Advertisements
Track Severe Weather on mobile